createdAt,value
2019-03-25T00:01:03.793Z,70.83
2019-03-25T00:03:34.879Z,65.30
2019-03-25T00:06:06.064Z,64.13
2019-03-25T00:08:37.131Z,66.23
2019-03-25T00:11:08.287Z,64.40
2019-03-25T00:13:39.427Z,68.47
2019-03-25T00:16:10.472Z,68.53
2019-03-25T00:18:41.571Z,64.07
2019-03-25T00:21:12.719Z,67.53
2019-03-25T00:23:43.766Z,68.17
2019-03-25T00:26:14.946Z,60.37
2019-03-25T00:28:47.035Z,76.60
2019-03-25T00:31:18.137Z,72.33
2019-03-25T00:33:49.159Z,57.20
2019-03-25T00:36:21.361Z,68.33
2019-03-25T00:38:53.848Z,63.10
2019-03-25T00:41:24.882Z,62.17
2019-03-25T00:43:55.955Z,63.30
2019-03-25T00:46:27.055Z,64.90
2019-03-25T00:48:58.148Z,59.43
2019-03-25T00:51:29.169Z,64.73
2019-03-25T00:54:00.255Z,62.53
2019-03-25T00:56:31.288Z,63.10
2019-03-25T00:59:02.453Z,64.40
2019-03-25T01:01:34.039Z,63.10
2019-03-25T01:04:05.027Z,68.00
2019-03-25T01:06:36.124Z,60.00
2019-03-25T01:09:08.159Z,63.23
2019-03-25T01:11:48.726Z,61.10
2019-03-25T01:14:11.936Z,55.77
2019-03-25T01:16:43.051Z,53.07
2019-03-25T01:19:14.298Z,52.00
2019-03-25T01:21:45.312Z,51.33
2019-03-25T01:24:17.375Z,51.87
2019-03-25T01:26:48.459Z,56.97
2019-03-25T01:29:19.472Z,56.43
2019-03-25T01:31:50.523Z,54.93
2019-03-25T01:34:21.592Z,51.87
2019-03-25T01:36:52.670Z,57.40
2019-03-25T01:39:23.731Z,59.67
2019-03-25T01:41:54.788Z,51.93
2019-03-25T01:44:25.802Z,46.67
2019-03-25T01:46:56.802Z,48.97
2019-03-25T01:49:27.868Z,46.90
2019-03-25T01:51:58.950Z,52.97
2019-03-25T01:54:30.005Z,44.57
2019-03-25T01:57:01.135Z,52.07
2019-03-25T01:59:32.169Z,45.20
2019-03-25T02:02:03.289Z,44.60
2019-03-25T02:04:34.309Z,44.57
2019-03-25T02:07:05.310Z,45.47
2019-03-25T02:09:36.339Z,49.50
2019-03-25T02:12:07.437Z,44.93
2019-03-25T02:14:38.454Z,52.60
2019-03-25T02:17:09.486Z,45.23
2019-03-25T02:19:40.534Z,46.40
2019-03-25T02:22:13.413Z,45.93
2019-03-25T02:24:44.470Z,48.77
2019-03-25T02:27:15.509Z,46.37
2019-03-25T02:29:47.206Z,45.60
2019-03-25T02:32:18.368Z,65.30
2019-03-25T02:34:50.336Z,47.97
2019-03-25T02:37:21.411Z,55.93
2019-03-25T02:39:52.388Z,51.97
2019-03-25T02:42:23.472Z,58.20
2019-03-25T02:44:54.435Z,55.47
2019-03-25T02:47:25.528Z,53.70
2019-03-25T02:49:56.559Z,63.87
2019-03-25T02:52:27.692Z,49.23
2019-03-25T02:54:58.761Z,63.23
2019-03-25T02:57:29.972Z,47.97
2019-03-25T03:00:01.058Z,44.67
2019-03-25T03:02:33.231Z,47.23
2019-03-25T03:05:04.312Z,37.57
2019-03-25T03:07:35.483Z,34.73
2019-03-25T03:10:07.648Z,44.80
2019-03-25T03:12:38.777Z,42.57
2019-03-25T03:15:10.320Z,44.00
2019-03-25T03:17:41.490Z,45.80
2019-03-25T03:20:12.627Z,36.13
2019-03-25T03:22:45.124Z,36.90
2019-03-25T03:25:16.246Z,49.47
2019-03-25T03:27:47.293Z,43.57
2019-03-25T03:30:18.515Z,45.93
2019-03-25T03:32:49.640Z,46.03
2019-03-25T03:35:20.684Z,55.13
2019-03-25T03:37:51.727Z,41.10
2019-03-25T03:40:24.121Z,49.63
2019-03-25T03:42:55.366Z,47.93
2019-03-25T03:45:26.420Z,43.33
2019-03-25T03:47:57.407Z,47.13
2019-03-25T03:50:29.175Z,47.53
2019-03-25T03:53:00.189Z,50.87
2019-03-25T03:55:31.814Z,44.07
2019-03-25T03:58:03.050Z,45.40
2019-03-25T04:00:35.820Z,46.33
2019-03-25T04:03:06.933Z,43.47
2019-03-25T04:05:38.035Z,46.57
2019-03-25T04:08:09.171Z,41.27
2019-03-25T04:10:40.246Z,49.63
2019-03-25T04:13:11.261Z,48.40
2019-03-25T04:15:42.427Z,44.70
2019-03-25T04:18:13.457Z,41.60
2019-03-25T04:20:44.464Z,50.73
2019-03-25T04:23:15.543Z,46.23
2019-03-25T04:25:46.706Z,44.60
2019-03-25T04:28:17.728Z,48.47
2019-03-25T04:30:48.827Z,43.07
2019-03-25T04:33:19.984Z,44.70
2019-03-25T04:35:51.047Z,39.77
2019-03-25T04:38:22.062Z,46.07
2019-03-25T04:40:53.079Z,39.63
2019-03-25T04:43:24.095Z,43.97
2019-03-25T04:45:55.094Z,45.40
2019-03-25T04:48:26.596Z,42.03
2019-03-25T04:50:57.735Z,42.07
2019-03-25T04:53:28.687Z,49.23
2019-03-25T04:55:59.758Z,46.37
2019-03-25T04:58:30.816Z,47.77
2019-03-25T05:01:01.871Z,42.13
2019-03-25T05:03:33.467Z,41.63
2019-03-25T05:06:04.536Z,46.40
2019-03-25T05:08:35.588Z,40.67
2019-03-25T05:11:06.700Z,43.83
2019-03-25T05:13:37.750Z,41.33
2019-03-25T05:16:08.751Z,51.63
2019-03-25T05:18:39.791Z,37.33
2019-03-25T05:21:10.780Z,46.23
2019-03-25T05:23:41.802Z,41.00
2019-03-25T05:26:12.840Z,39.00
2019-03-25T05:28:43.929Z,44.50
2019-03-25T05:31:14.949Z,41.10
2019-03-25T05:33:45.980Z,37.80
2019-03-25T05:36:17.135Z,38.97
2019-03-25T05:38:48.234Z,47.00
2019-03-25T05:41:19.346Z,34.00
2019-03-25T05:43:50.490Z,31.97
2019-03-25T05:46:21.559Z,32.70
2019-03-25T05:48:52.570Z,28.43
2019-03-25T05:51:23.558Z,35.63
2019-03-25T05:53:54.588Z,28.83
2019-03-25T05:56:25.580Z,31.37
2019-03-25T05:58:57.134Z,25.23
2019-03-25T06:01:28.506Z,23.90
2019-03-25T06:03:59.586Z,24.90
2019-03-25T06:06:30.686Z,28.00
2019-03-25T06:09:03.031Z,30.50
2019-03-25T06:11:34.003Z,23.10
2019-03-25T06:14:05.042Z,34.10
2019-03-25T06:16:36.087Z,29.37
2019-03-25T06:19:07.182Z,29.87
2019-03-25T06:21:38.214Z,26.20
2019-03-25T06:24:09.271Z,27.13
2019-03-25T06:26:40.329Z,32.27
2019-03-25T06:29:11.406Z,26.63
2019-03-25T06:31:42.752Z,30.70
2019-03-25T06:34:13.897Z,26.63
2019-03-25T06:36:46.054Z,27.37
2019-03-25T06:39:17.107Z,30.33
2019-03-25T06:41:48.262Z,20.63
2019-03-25T06:44:19.626Z,32.30
2019-03-25T06:46:50.727Z,30.33
2019-03-25T06:49:21.746Z,28.00
2019-03-25T06:51:52.865Z,23.57
2019-03-25T06:54:24.034Z,31.20
2019-03-25T06:56:56.166Z,40.87
2019-03-25T06:59:27.238Z,52.20
2019-03-25T07:01:58.339Z,47.37
2019-03-25T07:04:29.442Z,31.77
2019-03-25T07:07:00.656Z,39.70
2019-03-25T07:09:31.810Z,41.63
2019-03-25T07:12:02.819Z,48.13
2019-03-25T07:14:34.042Z,52.97
2019-03-25T07:17:05.068Z,49.80
2019-03-25T07:19:36.090Z,36.40
2019-03-25T07:22:07.094Z,24.57
2019-03-25T07:24:38.243Z,30.27
2019-03-25T07:27:09.290Z,31.87
2019-03-25T07:29:40.422Z,30.20
2019-03-25T07:32:11.548Z,28.40
2019-03-25T07:34:42.548Z,28.87
2019-03-25T07:37:13.588Z,25.27
2019-03-25T07:39:44.593Z,35.13
2019-03-25T07:42:15.602Z,35.73
2019-03-25T07:44:46.746Z,32.17
2019-03-25T07:47:18.021Z,25.97
2019-03-25T07:49:49.168Z,25.10
2019-03-25T07:52:20.356Z,26.23
2019-03-25T07:54:51.430Z,21.97
2019-03-25T07:57:22.495Z,21.20
2019-03-25T07:59:53.567Z,23.73
2019-03-25T08:02:25.647Z,15.30
2019-03-25T08:04:56.655Z,15.47
2019-03-25T08:07:27.638Z,13.00
2019-03-25T08:09:58.754Z,22.87
2019-03-25T08:12:29.762Z,16.30
2019-03-25T08:15:00.825Z,19.90
2019-03-25T08:17:32.120Z,18.30
2019-03-25T08:20:03.195Z,11.67
2019-03-25T08:22:34.392Z,12.67
2019-03-25T08:25:05.782Z,20.60
2019-03-25T08:27:36.811Z,16.40
2019-03-25T08:30:09.362Z,12.27
2019-03-25T08:32:40.469Z,8.90
2019-03-25T08:35:12.184Z,11.73
2019-03-25T08:37:43.248Z,14.43
2019-03-25T08:40:14.635Z,18.40
2019-03-25T08:42:45.737Z,24.70
2019-03-25T08:45:16.906Z,18.10
2019-03-25T08:47:47.850Z,23.83
2019-03-25T08:50:19.406Z,16.07
2019-03-25T08:52:50.393Z,17.27
2019-03-25T08:55:21.638Z,13.67
2019-03-25T08:57:52.713Z,11.70
2019-03-25T09:00:24.848Z,15.73
2019-03-25T09:02:55.804Z,14.90
2019-03-25T09:05:27.133Z,11.37
2019-03-25T09:07:58.176Z,19.70
2019-03-25T09:10:29.243Z,13.50
2019-03-25T09:13:00.312Z,14.13
2019-03-25T09:15:31.376Z,16.57
2019-03-25T09:18:02.408Z,20.20
2019-03-25T09:20:33.524Z,13.33
2019-03-25T09:23:04.534Z,23.80
2019-03-25T09:25:35.689Z,18.87
2019-03-25T09:28:06.717Z,29.60
2019-03-25T09:31:12.648Z,17.17
2019-03-25T09:33:43.970Z,22.07
2019-03-25T09:36:15.818Z,16.97
2019-03-25T09:38:46.840Z,19.77
2019-03-25T09:41:18.007Z,15.77
2019-03-25T09:43:49.028Z,15.27
2019-03-25T09:46:20.164Z,19.47
2019-03-25T09:48:51.219Z,33.17
2019-03-25T09:51:22.371Z,20.93
2019-03-25T09:53:53.525Z,17.77
2019-03-25T09:56:24.590Z,28.07
2019-03-25T09:58:55.608Z,22.13
2019-03-25T10:01:26.751Z,23.60
2019-03-25T10:03:57.760Z,36.80
2019-03-25T10:06:30.134Z,25.43
2019-03-25T10:09:01.303Z,23.10
2019-03-25T10:11:32.901Z,14.43
2019-03-25T10:14:03.982Z,18.33
2019-03-25T10:16:35.043Z,17.67
2019-03-25T10:19:06.149Z,14.30
2019-03-25T10:21:37.137Z,14.63
2019-03-25T10:24:08.311Z,19.17
2019-03-25T10:26:39.429Z,27.47
2019-03-25T10:29:10.441Z,25.67
2019-03-25T10:31:41.514Z,21.73
2019-03-25T10:34:12.588Z,27.03
2019-03-25T10:36:43.687Z,20.50
2019-03-25T10:39:14.772Z,17.43
2019-03-25T10:41:45.825Z,21.90
2019-03-25T10:44:16.885Z,17.33
2019-03-25T10:46:48.010Z,17.93
2019-03-25T10:49:19.131Z,14.67
2019-03-25T10:51:50.189Z,17.53
2019-03-25T10:54:21.486Z,14.83
2019-03-25T10:56:52.607Z,13.77
2019-03-25T10:59:23.769Z,16.13
2019-03-25T11:01:54.840Z,25.03
2019-03-25T11:04:25.934Z,22.07
2019-03-25T11:06:57.017Z,20.97
2019-03-25T11:09:28.191Z,13.03
2019-03-25T11:11:59.241Z,9.17
2019-03-25T11:14:30.261Z,20.53
2019-03-25T11:17:01.333Z,21.73
2019-03-25T11:19:32.417Z,20.67
2019-03-25T11:22:03.541Z,15.20
2019-03-25T11:24:34.784Z,13.70
2019-03-25T11:27:05.987Z,16.40
2019-03-25T11:29:37.077Z,23.07
2019-03-25T11:32:08.097Z,20.27
2019-03-25T11:34:39.063Z,12.20
2019-03-25T11:37:10.121Z,13.93
2019-03-25T11:39:41.189Z,12.53
2019-03-25T11:42:12.165Z,21.03
2019-03-25T11:44:43.185Z,13.73
2019-03-25T11:47:14.302Z,13.63
2019-03-25T11:49:45.406Z,15.83
2019-03-25T11:52:16.523Z,14.43
2019-03-25T11:54:47.517Z,15.33
2019-03-25T11:57:18.564Z,19.27
2019-03-25T11:59:49.629Z,17.43
2019-03-25T12:02:20.995Z,20.50
2019-03-25T12:04:52.163Z,17.33
2019-03-25T12:07:23.333Z,18.47
2019-03-25T12:09:54.414Z,20.17
2019-03-25T12:12:25.529Z,14.57
2019-03-25T12:14:56.646Z,17.53
2019-03-25T12:17:27.667Z,15.70
2019-03-25T12:19:58.681Z,16.37
2019-03-25T12:22:29.725Z,16.37
2019-03-25T12:25:00.765Z,15.23
2019-03-25T12:27:31.984Z,16.73
2019-03-25T12:30:03.293Z,17.47
2019-03-25T12:32:34.443Z,10.80
2019-03-25T12:35:06.028Z,16.07
2019-03-25T12:37:37.167Z,19.27
2019-03-25T12:40:08.475Z,14.73
2019-03-25T12:42:39.635Z,13.87
2019-03-25T12:45:10.913Z,15.17
2019-03-25T12:47:41.883Z,17.77
2019-03-25T12:50:13.160Z,31.33
2019-03-25T12:52:44.232Z,32.33
2019-03-25T12:55:15.315Z,38.97
2019-03-25T12:57:46.501Z,36.87
2019-03-25T13:00:21.783Z,53.67
2019-03-25T13:02:52.866Z,28.97
2019-03-25T13:05:23.955Z,23.20
2019-03-25T13:07:55.001Z,27.47
2019-03-25T13:10:26.111Z,22.67
2019-03-25T13:12:57.303Z,22.97
2019-03-25T13:15:28.353Z,26.17
2019-03-25T13:17:59.423Z,23.50
2019-03-25T13:20:30.658Z,23.90
2019-03-25T13:23:01.739Z,18.07
2019-03-25T13:25:33.956Z,20.73
2019-03-25T13:28:05.179Z,25.13
2019-03-25T13:30:36.198Z,44.17
2019-03-25T13:33:07.380Z,53.40
2019-03-25T13:35:38.519Z,38.13
2019-03-25T13:38:09.560Z,26.53
2019-03-25T13:40:40.637Z,26.77
2019-03-25T13:43:11.655Z,28.50
2019-03-25T13:45:42.690Z,29.27
2019-03-25T13:48:13.787Z,18.13
2019-03-25T13:50:44.850Z,26.30
2019-03-25T13:53:15.902Z,12.33
2019-03-25T13:55:46.912Z,10.43
2019-03-25T13:58:18.071Z,10.00
2019-03-25T14:00:49.116Z,11.33
2019-03-25T14:03:20.140Z,9.50
2019-03-25T14:05:51.207Z,11.13
2019-03-25T14:08:22.247Z,13.60
2019-03-25T14:10:53.311Z,10.13
2019-03-25T14:13:24.431Z,11.57
2019-03-25T14:15:55.569Z,11.67
2019-03-25T14:18:26.627Z,12.10
2019-03-25T14:20:57.696Z,15.20
2019-03-25T14:23:28.733Z,13.80
2019-03-25T14:25:59.777Z,14.23
2019-03-25T14:28:30.869Z,12.17
2019-03-25T14:31:01.931Z,15.07
2019-03-25T14:33:33.013Z,13.33
2019-03-25T14:36:04.087Z,12.23
2019-03-25T14:38:35.171Z,8.20
2019-03-25T14:41:06.278Z,16.17
2019-03-25T14:43:37.263Z,23.60
2019-03-25T14:46:08.451Z,17.53
2019-03-25T14:48:39.525Z,27.03
2019-03-25T14:51:10.505Z,18.00
2019-03-25T14:53:45.180Z,9.20
2019-03-25T14:56:14.482Z,10.23
2019-03-25T14:58:45.593Z,18.70
2019-03-25T15:01:16.557Z,29.87
2019-03-25T15:03:47.795Z,31.53
2019-03-25T15:06:20.831Z,25.90
2019-03-25T15:08:51.919Z,9.17
2019-03-25T15:11:24.439Z,11.33
2019-03-25T15:13:55.555Z,7.87
2019-03-25T15:16:26.549Z,6.70
2019-03-25T15:18:58.738Z,7.90
2019-03-25T15:21:29.727Z,5.40
2019-03-25T15:24:00.899Z,7.27
2019-03-25T15:26:31.906Z,7.87
2019-03-25T15:29:03.025Z,8.13
2019-03-25T15:31:34.171Z,4.93
2019-03-25T15:34:06.333Z,4.07
2019-03-25T15:36:38.299Z,4.43
2019-03-25T15:39:09.935Z,5.03
2019-03-25T15:41:40.944Z,8.07
2019-03-25T15:44:11.984Z,6.37
2019-03-25T15:46:43.045Z,6.57
2019-03-25T15:49:14.105Z,5.87
2019-03-25T15:51:45.089Z,7.47
2019-03-25T15:54:16.192Z,5.70
2019-03-25T15:56:50.223Z,9.23
2019-03-25T15:59:21.825Z,6.00
2019-03-25T16:01:52.869Z,6.20
2019-03-25T16:04:23.851Z,7.60
2019-03-25T16:06:54.960Z,9.70
2019-03-25T16:09:25.978Z,13.20
2019-03-25T16:11:57.077Z,12.10
2019-03-25T16:14:28.234Z,7.40
2019-03-25T16:16:59.319Z,13.90
2019-03-25T16:19:30.283Z,10.10
2019-03-25T16:22:01.877Z,12.17
2019-03-25T16:24:33.961Z,7.43
2019-03-25T16:27:04.982Z,7.20
2019-03-25T16:29:36.077Z,5.27
2019-03-25T16:32:07.096Z,6.67
2019-03-25T16:34:38.171Z,7.67
2019-03-25T16:37:09.207Z,6.80
2019-03-25T16:39:41.414Z,9.40
2019-03-25T16:42:12.392Z,7.87
2019-03-25T16:44:43.515Z,8.90
2019-03-25T16:47:14.498Z,9.17
2019-03-25T16:49:45.613Z,8.47
2019-03-25T16:52:16.578Z,9.53
2019-03-25T16:54:47.619Z,8.67
2019-03-25T16:57:19.069Z,12.37
2019-03-25T16:59:53.480Z,14.40
2019-03-25T17:02:24.533Z,11.53
2019-03-25T17:04:55.652Z,16.03
2019-03-25T17:07:26.736Z,14.03
2019-03-25T17:09:57.869Z,19.23
2019-03-25T17:12:30.003Z,18.30
2019-03-25T17:15:01.012Z,16.00
2019-03-25T17:17:32.374Z,14.17
2019-03-25T17:20:03.388Z,11.80
2019-03-25T17:22:53.008Z,11.63
2019-03-25T17:25:25.075Z,11.07
2019-03-25T17:27:56.253Z,13.23
2019-03-25T17:30:27.505Z,13.77
2019-03-25T17:32:58.585Z,16.10
2019-03-25T17:35:29.678Z,16.00
2019-03-25T17:38:00.750Z,21.80
2019-03-25T17:40:31.806Z,23.90
2019-03-25T17:43:02.898Z,16.53
2019-03-25T17:45:35.543Z,18.67
2019-03-25T17:48:08.719Z,15.33
2019-03-25T17:50:39.726Z,21.43
2019-03-25T17:53:10.777Z,25.63
2019-03-25T17:55:42.851Z,28.60
2019-03-25T17:58:13.967Z,24.73
2019-03-25T18:01:37.829Z,17.63
2019-03-25T18:04:08.988Z,26.80
2019-03-25T18:06:40.090Z,28.60
2019-03-25T18:09:11.841Z,25.27
2019-03-25T18:11:44.457Z,39.80
2019-03-25T18:14:17.140Z,30.63
2019-03-25T18:16:48.206Z,26.43
2019-03-25T18:19:20.276Z,29.77
2019-03-25T18:21:51.334Z,30.90
2019-03-25T18:24:22.356Z,28.03
2019-03-25T18:26:53.378Z,27.67
2019-03-25T18:29:24.413Z,21.83
2019-03-25T18:31:55.513Z,24.27
2019-03-25T18:34:26.589Z,17.97
2019-03-25T18:36:57.614Z,20.10
2019-03-25T18:39:28.609Z,18.73
2019-03-25T18:41:59.649Z,26.10
2019-03-25T18:44:30.683Z,19.47
2019-03-25T18:47:01.815Z,16.30
2019-03-25T18:49:33.794Z,18.57
2019-03-25T18:52:05.214Z,23.23
2019-03-25T18:54:36.446Z,25.63
2019-03-25T18:57:07.497Z,25.27
2019-03-25T18:59:39.632Z,22.83
2019-03-25T19:02:11.135Z,24.37
2019-03-25T19:04:42.214Z,28.63
2019-03-25T19:07:13.297Z,28.60
2019-03-25T19:09:46.447Z,27.40
2019-03-25T19:12:17.485Z,31.03
2019-03-25T19:14:49.672Z,28.90
2019-03-25T19:17:20.806Z,29.40
2019-03-25T19:19:51.846Z,28.33
2019-03-25T19:22:22.926Z,26.10
2019-03-25T19:24:53.983Z,28.77
2019-03-25T19:27:27.042Z,29.97
2019-03-25T19:53:45.502Z,30.47
2019-03-25T20:19:31.977Z,24.87
2019-03-25T20:22:03.113Z,22.20
2019-03-25T20:24:34.264Z,20.70
2019-03-25T20:30:09.164Z,21.40
2019-03-25T20:35:37.192Z,22.83
2019-03-25T20:38:23.063Z,26.53
2019-03-25T20:40:54.445Z,27.90
2019-03-25T20:43:27.047Z,36.23
2019-03-25T20:45:58.208Z,29.07
2019-03-25T20:48:29.564Z,24.47
2019-03-25T20:51:00.850Z,36.77
2019-03-25T20:53:32.106Z,29.67
2019-03-25T20:56:03.542Z,40.07
2019-03-25T20:58:34.648Z,50.97
2019-03-25T21:01:05.871Z,46.90
2019-03-25T21:03:36.996Z,57.93
2019-03-25T21:06:11.248Z,54.63
2019-03-25T21:08:42.416Z,57.53
2019-03-25T21:11:13.414Z,54.10
2019-03-25T21:13:44.731Z,52.40
2019-03-25T21:16:15.936Z,37.50
2019-03-25T21:18:47.271Z,32.57
2019-03-25T21:21:18.661Z,47.83
2019-03-25T21:23:49.804Z,53.37
2019-03-25T21:26:20.883Z,61.37
2019-03-25T21:28:53.051Z,51.00
2019-03-25T21:31:24.192Z,42.83
2019-03-25T21:33:55.458Z,33.60
2019-03-25T21:36:26.609Z,38.77
2019-03-25T21:38:57.723Z,38.33
2019-03-25T21:41:29.011Z,33.17
2019-03-25T21:44:00.209Z,32.43
2019-03-25T21:46:31.371Z,66.17
2019-03-25T21:49:02.751Z,50.53
2019-03-25T21:51:33.974Z,52.00
2019-03-25T21:54:05.118Z,72.90
2019-03-25T21:56:36.302Z,91.30
2019-03-25T21:59:07.531Z,66.77
2019-03-25T22:01:38.664Z,81.13
2019-03-25T22:04:09.810Z,72.30
2019-03-25T22:06:40.880Z,76.13
2019-03-25T22:09:12.064Z,50.10
2019-03-25T22:11:43.212Z,80.23
2019-03-25T22:14:14.372Z,81.70
2019-03-25T22:16:49.327Z,85.67
2019-03-25T22:19:20.515Z,59.10
2019-03-25T22:21:51.673Z,55.00
2019-03-25T22:24:22.766Z,37.03
2019-03-25T22:26:53.852Z,29.53
2019-03-25T22:29:24.876Z,24.87
2019-03-25T22:31:56.188Z,23.77
2019-03-25T22:34:27.342Z,24.57
2019-03-25T22:36:58.499Z,25.60
2019-03-25T22:39:29.625Z,29.20
2019-03-25T22:42:01.077Z,27.90
2019-03-25T22:44:32.180Z,27.30
2019-03-25T22:47:03.396Z,25.20
2019-03-25T22:49:34.481Z,29.73
2019-03-25T22:52:05.548Z,24.07
2019-03-25T22:54:36.705Z,28.43
2019-03-25T22:57:07.890Z,27.07
2019-03-25T22:59:40.752Z,25.10
2019-03-25T23:02:12.014Z,25.07
2019-03-25T23:04:43.065Z,29.00
2019-03-25T23:07:14.182Z,23.87
2019-03-25T23:09:46.433Z,26.73
2019-03-25T23:12:17.465Z,25.10
2019-03-25T23:14:48.666Z,28.13
2019-03-25T23:17:19.751Z,21.83
2019-03-25T23:19:50.788Z,25.23
2019-03-25T23:22:21.951Z,33.77
2019-03-25T23:24:54.059Z,25.17
2019-03-25T23:27:25.327Z,24.03
2019-03-25T23:29:56.528Z,27.00
2019-03-25T23:32:27.625Z,23.40
2019-03-25T23:34:58.803Z,24.27
2019-03-25T23:37:29.922Z,24.43
2019-03-25T23:40:01.176Z,26.60
2019-03-25T23:42:32.392Z,29.70
2019-03-25T23:45:03.495Z,22.53
2019-03-25T23:47:34.669Z,25.20
2019-03-25T23:50:07.377Z,25.80
2019-03-25T23:52:38.391Z,23.50
2019-03-25T23:55:09.546Z,32.17
2019-03-25T23:57:40.715Z,22.47
